Estación Meteorológica Peña el Pijo (Robertgarden) [ 01/30/23 15:39:31 CET ]

Fecha Hora Presion(HPa) Temp (°C) Humedad % Rocio (°C) Viento ( m/s) Direccion Lluvia 1Hora(mm) Lluvia 24H(mm) LLuvia Total(mm)
2012-May-31 01:01:14 1014.800 13.1 57 4.7         159.54
2012-May-31 02:01:13 1014.600 12.4 61 5.1         159.54
2012-May-31 03:01:49 1014.200 12.1 64 5.5         159.54
2012-May-31 04:10:06 1014.200 11.5 65 5.1         159.54
2012-May-31 05:07:09 1014.100 11.3 65 4.9         159.54
2012-May-31 06:01:40 1013.800 11.1 66 5.0         159.54
2012-May-31 07:01:16 1014.100 10.5 69 5.1         159.54
2012-May-31 08:01:12 1014.700 11.2 70 6.0         159.54
2012-May-31 09:01:14 1014.800 14.9 63 7.9         159.54
2012-May-31 10:01:13 1014.600 22.6 42 9.0         159.54
2012-May-31 11:01:12 1014.200 26.3 29 6.8         159.54
2012-May-31 12:01:13 1014.600 28.3 25 6.2 1.3 NE     159.54
2012-May-31 13:01:15 1015.100 26.3 24 3.9 0.6 NNE     159.54
2012-May-31 14:01:15 1015.100 27.6 23 4.4 3.5 ENE     159.54
2012-May-31 15:01:14 1014.400 27.3 23 4.2 2.3 NNE     159.54
2012-May-31 16:01:13 1014.000 26.3 24 3.9         159.54
2012-May-31 17:01:12 1013.700 28.6 22 4.7 1.4 E     159.54
2012-May-31 18:01:15 1013.300 28.4 21 3.9         159.54
2012-May-31 19:01:15 1013.200 26.1 23 3.1 0.4 S     159.54
2012-May-31 20:01:13 1012.900 24.0 25 2.5         159.54
2012-May-31 21:01:14 1012.800 21.3 33 4.3         159.54
2012-May-31 22:01:17 1013.000 18.8 40 4.9         159.54
2012-May-31 23:01:14 1013.900 16.0 45 4.0         159.54

Temperatura Máxima:28°    Temperatura Mínima:10°
Presión Máxima:1015.100 Hpa    Presión Mínima:1012.800 Hpa


Volver